Terminal Aerodrome Forecast
Issued by NWS

Home | Current Version | Previous Version | Text Only | Print | Product List | Glossary Off
Versions: 1 2 3 4 5 6 7 8 9 10 11 12 13 14 15

000
FTUS42 KMHX 251139
TAFPGV
TAF
KPGV 251139Z 2512/2612 VRB03KT P6SM VCSH BKN080
     FM252000 20005KT P6SM VCTS BKN050CB
     FM260700 00000KT 2SM BR SCT007
      AMD LTD TO CLD VIS AND WIND=

USA.gov is the U.S. government's official web portal to all federal, state and local government web resources and services.